sensor_id;sensor_type;location;lat;lon;timestamp;P1;durP1;ratioP1;P2;durP2;ratioP2
40653;SDS011;26344;45.532;9.232;2023-03-19T00:00:11;35.47;;;21.27;;
40653;SDS011;26344;45.532;9.232;2023-03-19T00:02:37;34.03;;;20.98;;
40653;SDS011;26344;45.532;9.232;2023-03-19T00:05:03;35.80;;;20.92;;
40653;SDS011;26344;45.532;9.232;2023-03-19T00:07:30;37.35;;;20.77;;
40653;SDS011;26344;45.532;9.232;2023-03-19T00:09:56;36.05;;;21.55;;
40653;SDS011;26344;45.532;9.232;2023-03-19T00:12:22;34.58;;;21.58;;
40653;SDS011;26344;45.532;9.232;2023-03-19T00:14:48;37.67;;;20.40;;
40653;SDS011;26344;45.532;9.232;2023-03-19T00:17:14;36.50;;;20.95;;
40653;SDS011;26344;45.532;9.232;2023-03-19T00:19:40;38.33;;;22.33;;
40653;SDS011;26344;45.532;9.232;2023-03-19T00:22:06;37.78;;;20.92;;
40653;SDS011;26344;45.532;9.232;2023-03-19T00:24:33;34.42;;;21.23;;
40653;SDS011;26344;45.532;9.232;2023-03-19T00:26:59;37.60;;;21.15;;
40653;SDS011;26344;45.532;9.232;2023-03-19T00:29:25;37.80;;;21.70;;
40653;SDS011;26344;45.532;9.232;2023-03-19T00:31:51;38.60;;;22.10;;
40653;SDS011;26344;45.532;9.232;2023-03-19T00:34:17;38.50;;;23.90;;
40653;SDS011;26344;45.532;9.232;2023-03-19T00:36:44;38.13;;;23.13;;
40653;SDS011;26344;45.532;9.232;2023-03-19T00:39:10;36.88;;;23.13;;
40653;SDS011;26344;45.532;9.232;2023-03-19T00:41:36;40.15;;;25.10;;
40653;SDS011;26344;45.532;9.232;2023-03-19T00:44:02;38.75;;;24.05;;
40653;SDS011;26344;45.532;9.232;2023-03-19T00:46:30;39.15;;;24.50;;
40653;SDS011;26344;45.532;9.232;2023-03-19T00:48:55;39.88;;;24.17;;
40653;SDS011;26344;45.532;9.232;2023-03-19T00:51:23;39.72;;;24.45;;
40653;SDS011;26344;45.532;9.232;2023-03-19T00:53:51;42.10;;;24.20;;
40653;SDS011;26344;45.532;9.232;2023-03-19T00:56:18;38.97;;;25.33;;
40653;SDS011;26344;45.532;9.232;2023-03-19T00:58:45;38.47;;;23.75;;
40653;SDS011;26344;45.532;9.232;2023-03-19T01:01:12;40.38;;;24.20;;
40653;SDS011;26344;45.532;9.232;2023-03-19T01:03:38;37.13;;;24.55;;
40653;SDS011;26344;45.532;9.232;2023-03-19T01:06:05;39.97;;;24.52;;
40653;SDS011;26344;45.532;9.232;2023-03-19T01:08:31;39.42;;;23.95;;
40653;SDS011;26344;45.532;9.232;2023-03-19T01:11:30;41.33;;;24.27;;
40653;SDS011;26344;45.532;9.232;2023-03-19T01:13:49;45.85;;;24.77;;
40653;SDS011;26344;45.532;9.232;2023-03-19T01:16:15;42.33;;;26.13;;
40653;SDS011;26344;45.532;9.232;2023-03-19T01:18:41;53.05;;;27.08;;
40653;SDS011;26344;45.532;9.232;2023-03-19T01:21:07;43.45;;;28.35;;
40653;SDS011;26344;45.532;9.232;2023-03-19T01:23:34;41.15;;;27.70;;
40653;SDS011;26344;45.532;9.232;2023-03-19T01:26:00;43.45;;;28.13;;
40653;SDS011;26344;45.532;9.232;2023-03-19T01:28:26;46.08;;;26.98;;
40653;SDS011;26344;45.532;9.232;2023-03-19T01:30:56;42.85;;;28.08;;
40653;SDS011;26344;45.532;9.232;2023-03-19T01:33:23;41.70;;;27.50;;
40653;SDS011;26344;45.532;9.232;2023-03-19T01:35:49;45.50;;;27.80;;
40653;SDS011;26344;45.532;9.232;2023-03-19T01:38:15;43.42;;;27.98;;
40653;SDS011;26344;45.532;9.232;2023-03-19T01:40:47;42.85;;;27.02;;
40653;SDS011;26344;45.532;9.232;2023-03-19T01:43:14;40.38;;;26.67;;
40653;SDS011;26344;45.532;9.232;2023-03-19T01:45:42;44.28;;;27.85;;
40653;SDS011;26344;45.532;9.232;2023-03-19T01:48:15;47.55;;;27.98;;
40653;SDS011;26344;45.532;9.232;2023-03-19T01:50:51;42.60;;;27.50;;
40653;SDS011;26344;45.532;9.232;2023-03-19T01:53:19;42.83;;;27.45;;
40653;SDS011;26344;45.532;9.232;2023-03-19T01:55:54;42.83;;;26.65;;
40653;SDS011;26344;45.532;9.232;2023-03-19T01:58:24;41.50;;;27.02;;
40653;SDS011;26344;45.532;9.232;2023-03-19T02:00:51;44.40;;;26.80;;
40653;SDS011;26344;45.532;9.232;2023-03-19T02:03:17;40.50;;;26.48;;
40653;SDS011;26344;45.532;9.232;2023-03-19T02:05:43;44.72;;;28.02;;
40653;SDS011;26344;45.532;9.232;2023-03-19T02:08:11;38.42;;;25.23;;
40653;SDS011;26344;45.532;9.232;2023-03-19T02:10:38;42.75;;;26.33;;
40653;SDS011;26344;45.532;9.232;2023-03-19T02:13:05;42.28;;;26.15;;
40653;SDS011;26344;45.532;9.232;2023-03-19T02:15:31;40.80;;;26.45;;
40653;SDS011;26344;45.532;9.232;2023-03-19T02:17:57;39.65;;;25.27;;
40653;SDS011;26344;45.532;9.232;2023-03-19T02:23:13;45.45;;;26.23;;
40653;SDS011;26344;45.532;9.232;2023-03-19T02:28:11;40.45;;;25.20;;
40653;SDS011;26344;45.532;9.232;2023-03-19T02:30:40;38.47;;;25.42;;
40653;SDS011;26344;45.532;9.232;2023-03-19T02:33:11;36.42;;;24.77;;
40653;SDS011;26344;45.532;9.232;2023-03-19T02:35:38;40.45;;;25.38;;
40653;SDS011;26344;45.532;9.232;2023-03-19T02:38:05;40.92;;;25.38;;
40653;SDS011;26344;45.532;9.232;2023-03-19T02:40:33;41.28;;;25.17;;
40653;SDS011;26344;45.532;9.232;2023-03-19T02:43:01;40.40;;;25.38;;
40653;SDS011;26344;45.532;9.232;2023-03-19T02:45:27;39.90;;;25.23;;
40653;SDS011;26344;45.532;9.232;2023-03-19T02:47:54;40.35;;;25.42;;
40653;SDS011;26344;45.532;9.232;2023-03-19T02:50:20;42.85;;;24.95;;
40653;SDS011;26344;45.532;9.232;2023-03-19T02:52:46;40.35;;;25.17;;
40653;SDS011;26344;45.532;9.232;2023-03-19T02:55:12;45.83;;;24.75;;
40653;SDS011;26344;45.532;9.232;2023-03-19T02:57:38;35.53;;;23.63;;
40653;SDS011;26344;45.532;9.232;2023-03-19T03:00:05;33.05;;;22.27;;
40653;SDS011;26344;45.532;9.232;2023-03-19T03:02:33;36.72;;;23.80;;
40653;SDS011;26344;45.532;9.232;2023-03-19T03:04:59;35.97;;;23.67;;
40653;SDS011;26344;45.532;9.232;2023-03-19T03:07:25;34.55;;;24.33;;
40653;SDS011;26344;45.532;9.232;2023-03-19T03:09:51;34.97;;;22.80;;
40653;SDS011;26344;45.532;9.232;2023-03-19T03:12:17;36.95;;;23.50;;
40653;SDS011;26344;45.532;9.232;2023-03-19T03:14:43;35.95;;;23.25;;
40653;SDS011;26344;45.532;9.232;2023-03-19T03:17:10;37.75;;;23.00;;
40653;SDS011;26344;45.532;9.232;2023-03-19T03:19:36;36.83;;;22.90;;
40653;SDS011;26344;45.532;9.232;2023-03-19T03:22:01;36.88;;;23.17;;
40653;SDS011;26344;45.532;9.232;2023-03-19T03:24:27;36.28;;;23.17;;
40653;SDS011;26344;45.532;9.232;2023-03-19T03:26:53;35.05;;;23.13;;
40653;SDS011;26344;45.532;9.232;2023-03-19T03:29:20;33.72;;;22.55;;
40653;SDS011;26344;45.532;9.232;2023-03-19T03:31:46;34.03;;;21.98;;
40653;SDS011;26344;45.532;9.232;2023-03-19T03:34:12;35.47;;;23.17;;
40653;SDS011;26344;45.532;9.232;2023-03-19T03:36:38;38.88;;;24.00;;
40653;SDS011;26344;45.532;9.232;2023-03-19T03:39:04;39.13;;;22.55;;
40653;SDS011;26344;45.532;9.232;2023-03-19T03:41:30;32.15;;;22.60;;
40653;SDS011;26344;45.532;9.232;2023-03-19T03:43:56;32.65;;;21.38;;
40653;SDS011;26344;45.532;9.232;2023-03-19T03:46:22;32.50;;;22.42;;
40653;SDS011;26344;45.532;9.232;2023-03-19T03:48:49;33.08;;;22.85;;
40653;SDS011;26344;45.532;9.232;2023-03-19T03:51:16;32.08;;;21.88;;
40653;SDS011;26344;45.532;9.232;2023-03-19T03:53:42;32.72;;;22.70;;
40653;SDS011;26344;45.532;9.232;2023-03-19T03:56:08;30.20;;;21.52;;
40653;SDS011;26344;45.532;9.232;2023-03-19T03:58:34;33.90;;;22.65;;
40653;SDS011;26344;45.532;9.232;2023-03-19T04:01:00;33.83;;;22.13;;
40653;SDS011;26344;45.532;9.232;2023-03-19T04:03:25;33.95;;;21.55;;
40653;SDS011;26344;45.532;9.232;2023-03-19T04:05:52;29.55;;;21.38;;
40653;SDS011;26344;45.532;9.232;2023-03-19T04:08:18;32.30;;;21.15;;
40653;SDS011;26344;45.532;9.232;2023-03-19T04:10:44;34.25;;;22.05;;
40653;SDS011;26344;45.532;9.232;2023-03-19T04:13:10;34.38;;;22.17;;
40653;SDS011;26344;45.532;9.232;2023-03-19T04:15:36;32.30;;;21.98;;
40653;SDS011;26344;45.532;9.232;2023-03-19T04:18:02;30.27;;;21.17;;
40653;SDS011;26344;45.532;9.232;2023-03-19T04:20:28;33.17;;;22.70;;
40653;SDS011;26344;45.532;9.232;2023-03-19T04:22:55;31.48;;;21.63;;
40653;SDS011;26344;45.532;9.232;2023-03-19T04:25:21;32.55;;;21.55;;
40653;SDS011;26344;45.532;9.232;2023-03-19T04:27:47;30.30;;;20.77;;
40653;SDS011;26344;45.532;9.232;2023-03-19T04:30:13;31.73;;;21.75;;
40653;SDS011;26344;45.532;9.232;2023-03-19T04:32:39;34.53;;;21.80;;
40653;SDS011;26344;45.532;9.232;2023-03-19T04:35:05;30.48;;;21.15;;
40653;SDS011;26344;45.532;9.232;2023-03-19T04:37:32;39.38;;;21.90;;
40653;SDS011;26344;45.532;9.232;2023-03-19T04:39:58;31.08;;;21.30;;
40653;SDS011;26344;45.532;9.232;2023-03-19T04:42:25;32.70;;;22.13;;
40653;SDS011;26344;45.532;9.232;2023-03-19T04:44:52;34.42;;;21.23;;
40653;SDS011;26344;45.532;9.232;2023-03-19T04:47:18;31.50;;;21.58;;
40653;SDS011;26344;45.532;9.232;2023-03-19T04:49:44;29.98;;;21.67;;
40653;SDS011;26344;45.532;9.232;2023-03-19T04:52:11;30.50;;;22.20;;
40653;SDS011;26344;45.532;9.232;2023-03-19T04:54:36;30.05;;;20.65;;
40653;SDS011;26344;45.532;9.232;2023-03-19T04:57:02;36.25;;;21.90;;
40653;SDS011;26344;45.532;9.232;2023-03-19T04:59:28;30.30;;;21.75;;
40653;SDS011;26344;45.532;9.232;2023-03-19T05:01:55;30.75;;;21.08;;
40653;SDS011;26344;45.532;9.232;2023-03-19T05:04:21;30.58;;;20.98;;
40653;SDS011;26344;45.532;9.232;2023-03-19T05:06:47;33.95;;;21.58;;
40653;SDS011;26344;45.532;9.232;2023-03-19T05:09:14;32.03;;;20.50;;
40653;SDS011;26344;45.532;9.232;2023-03-19T05:11:40;30.38;;;20.83;;
40653;SDS011;26344;45.532;9.232;2023-03-19T05:14:06;30.83;;;21.60;;
40653;SDS011;26344;45.532;9.232;2023-03-19T05:16:32;30.73;;;22.08;;
40653;SDS011;26344;45.532;9.232;2023-03-19T05:18:59;30.50;;;21.65;;
40653;SDS011;26344;45.532;9.232;2023-03-19T05:21:25;30.58;;;21.73;;
40653;SDS011;26344;45.532;9.232;2023-03-19T05:23:52;31.58;;;21.70;;
40653;SDS011;26344;45.532;9.232;2023-03-19T05:26:18;33.50;;;21.67;;
40653;SDS011;26344;45.532;9.232;2023-03-19T05:28:45;33.55;;;21.33;;
40653;SDS011;26344;45.532;9.232;2023-03-19T05:31:11;30.55;;;20.85;;
40653;SDS011;26344;45.532;9.232;2023-03-19T05:33:37;32.05;;;22.15;;
40653;SDS011;26344;45.532;9.232;2023-03-19T05:36:03;33.58;;;21.27;;
40653;SDS011;26344;45.532;9.232;2023-03-19T05:38:29;31.98;;;21.83;;
40653;SDS011;26344;45.532;9.232;2023-03-19T05:40:55;32.85;;;20.73;;
40653;SDS011;26344;45.532;9.232;2023-03-19T05:43:20;35.47;;;22.08;;
40653;SDS011;26344;45.532;9.232;2023-03-19T05:45:49;32.17;;;21.70;;
40653;SDS011;26344;45.532;9.232;2023-03-19T05:48:16;29.67;;;20.10;;
40653;SDS011;26344;45.532;9.232;2023-03-19T05:50:42;32.67;;;21.58;;
40653;SDS011;26344;45.532;9.232;2023-03-19T05:53:08;34.55;;;21.90;;
40653;SDS011;26344;45.532;9.232;2023-03-19T05:55:34;32.20;;;21.63;;
40653;SDS011;26344;45.532;9.232;2023-03-19T05:58:00;33.78;;;21.88;;
40653;SDS011;26344;45.532;9.232;2023-03-19T06:00:26;30.60;;;21.17;;
40653;SDS011;26344;45.532;9.232;2023-03-19T06:02:52;31.13;;;20.67;;
40653;SDS011;26344;45.532;9.232;2023-03-19T06:05:19;31.75;;;21.00;;
40653;SDS011;26344;45.532;9.232;2023-03-19T06:07:45;34.53;;;21.45;;
40653;SDS011;26344;45.532;9.232;2023-03-19T06:10:11;33.15;;;22.30;;
40653;SDS011;26344;45.532;9.232;2023-03-19T06:12:37;34.40;;;21.63;;
40653;SDS011;26344;45.532;9.232;2023-03-19T06:15:03;34.83;;;21.63;;
40653;SDS011;26344;45.532;9.232;2023-03-19T06:17:30;32.80;;;22.38;;
40653;SDS011;26344;45.532;9.232;2023-03-19T06:19:56;35.50;;;21.77;;
40653;SDS011;26344;45.532;9.232;2023-03-19T06:22:22;31.98;;;21.35;;
40653;SDS011;26344;45.532;9.232;2023-03-19T06:24:48;32.03;;;21.65;;
40653;SDS011;26344;45.532;9.232;2023-03-19T06:27:14;30.95;;;21.23;;
40653;SDS011;26344;45.532;9.232;2023-03-19T06:29:41;30.33;;;20.40;;
40653;SDS011;26344;45.532;9.232;2023-03-19T06:32:07;34.45;;;21.40;;
40653;SDS011;26344;45.532;9.232;2023-03-19T06:34:33;32.78;;;21.38;;
40653;SDS011;26344;45.532;9.232;2023-03-19T06:36:59;37.35;;;21.25;;
40653;SDS011;26344;45.532;9.232;2023-03-19T06:39:26;31.75;;;20.50;;
40653;SDS011;26344;45.532;9.232;2023-03-19T06:41:52;30.92;;;21.33;;
40653;SDS011;26344;45.532;9.232;2023-03-19T06:44:18;33.00;;;21.38;;
40653;SDS011;26344;45.532;9.232;2023-03-19T06:46:44;31.10;;;20.50;;
40653;SDS011;26344;45.532;9.232;2023-03-19T06:49:10;33.17;;;20.63;;
40653;SDS011;26344;45.532;9.232;2023-03-19T06:51:37;30.73;;;21.92;;
40653;SDS011;26344;45.532;9.232;2023-03-19T06:54:03;31.48;;;21.25;;
40653;SDS011;26344;45.532;9.232;2023-03-19T06:56:29;34.38;;;22.05;;
40653;SDS011;26344;45.532;9.232;2023-03-19T06:58:55;34.35;;;21.52;;
40653;SDS011;26344;45.532;9.232;2023-03-19T07:01:21;32.35;;;20.98;;
40653;SDS011;26344;45.532;9.232;2023-03-19T07:03:47;31.83;;;21.40;;
40653;SDS011;26344;45.532;9.232;2023-03-19T07:06:13;35.70;;;21.33;;
40653;SDS011;26344;45.532;9.232;2023-03-19T07:08:39;31.17;;;21.52;;
40653;SDS011;26344;45.532;9.232;2023-03-19T07:11:10;30.70;;;21.50;;
40653;SDS011;26344;45.532;9.232;2023-03-19T07:13:36;34.40;;;21.65;;
40653;SDS011;26344;45.532;9.232;2023-03-19T07:16:02;32.25;;;21.60;;
40653;SDS011;26344;45.532;9.232;2023-03-19T07:18:28;32.55;;;21.48;;
40653;SDS011;26344;45.532;9.232;2023-03-19T07:20:54;32.67;;;21.00;;
40653;SDS011;26344;45.532;9.232;2023-03-19T07:23:20;31.88;;;21.17;;
40653;SDS011;26344;45.532;9.232;2023-03-19T07:25:46;32.40;;;21.35;;
40653;SDS011;26344;45.532;9.232;2023-03-19T07:28:12;29.40;;;20.38;;
40653;SDS011;26344;45.532;9.232;2023-03-19T07:30:38;34.92;;;21.25;;
40653;SDS011;26344;45.532;9.232;2023-03-19T07:33:05;33.13;;;21.52;;
40653;SDS011;26344;45.532;9.232;2023-03-19T07:35:31;28.65;;;21.20;;
40653;SDS011;26344;45.532;9.232;2023-03-19T07:37:57;32.85;;;22.58;;
40653;SDS011;26344;45.532;9.232;2023-03-19T07:40:24;34.05;;;21.27;;
40653;SDS011;26344;45.532;9.232;2023-03-19T07:42:50;31.55;;;22.05;;
40653;SDS011;26344;45.532;9.232;2023-03-19T07:45:16;35.38;;;21.63;;
40653;SDS011;26344;45.532;9.232;2023-03-19T07:47:42;30.55;;;21.98;;
40653;SDS011;26344;45.532;9.232;2023-03-19T07:50:08;33.22;;;21.73;;
40653;SDS011;26344;45.532;9.232;2023-03-19T07:52:35;33.88;;;22.92;;
40653;SDS011;26344;45.532;9.232;2023-03-19T07:55:01;30.77;;;20.95;;
40653;SDS011;26344;45.532;9.232;2023-03-19T07:57:27;33.05;;;22.25;;
40653;SDS011;26344;45.532;9.232;2023-03-19T07:59:53;30.10;;;22.23;;
40653;SDS011;26344;45.532;9.232;2023-03-19T08:02:19;30.05;;;20.73;;
40653;SDS011;26344;45.532;9.232;2023-03-19T08:04:45;31.77;;;20.48;;
40653;SDS011;26344;45.532;9.232;2023-03-19T08:07:11;34.67;;;21.80;;
40653;SDS011;26344;45.532;9.232;2023-03-19T08:09:38;33.65;;;22.85;;
40653;SDS011;26344;45.532;9.232;2023-03-19T08:12:04;29.35;;;21.10;;
40653;SDS011;26344;45.532;9.232;2023-03-19T08:14:31;33.58;;;22.08;;
40653;SDS011;26344;45.532;9.232;2023-03-19T08:16:57;33.50;;;22.25;;
40653;SDS011;26344;45.532;9.232;2023-03-19T08:19:23;32.88;;;21.63;;
40653;SDS011;26344;45.532;9.232;2023-03-19T08:21:49;34.53;;;21.30;;
40653;SDS011;26344;45.532;9.232;2023-03-19T08:24:15;30.58;;;21.10;;
40653;SDS011;26344;45.532;9.232;2023-03-19T08:26:42;31.20;;;21.55;;
40653;SDS011;26344;45.532;9.232;2023-03-19T08:29:08;30.50;;;21.23;;
40653;SDS011;26344;45.532;9.232;2023-03-19T08:31:34;29.40;;;21.02;;
40653;SDS011;26344;45.532;9.232;2023-03-19T08:34:00;30.23;;;20.20;;
40653;SDS011;26344;45.532;9.232;2023-03-19T08:36:28;30.20;;;21.60;;
40653;SDS011;26344;45.532;9.232;2023-03-19T08:38:54;36.25;;;22.15;;
40653;SDS011;26344;45.532;9.232;2023-03-19T08:41:21;33.25;;;21.40;;
40653;SDS011;26344;45.532;9.232;2023-03-19T08:43:47;30.27;;;21.95;;
40653;SDS011;26344;45.532;9.232;2023-03-19T08:46:13;33.70;;;22.10;;
40653;SDS011;26344;45.532;9.232;2023-03-19T08:48:40;28.15;;;20.88;;
40653;SDS011;26344;45.532;9.232;2023-03-19T08:51:06;33.80;;;21.92;;
40653;SDS011;26344;45.532;9.232;2023-03-19T08:53:33;29.15;;;20.95;;
40653;SDS011;26344;45.532;9.232;2023-03-19T08:56:00;35.47;;;22.33;;
40653;SDS011;26344;45.532;9.232;2023-03-19T08:58:27;33.45;;;21.75;;
40653;SDS011;26344;45.532;9.232;2023-03-19T09:00:58;31.58;;;21.50;;
40653;SDS011;26344;45.532;9.232;2023-03-19T09:03:27;34.03;;;22.95;;
40653;SDS011;26344;45.532;9.232;2023-03-19T09:05:56;29.10;;;21.23;;
40653;SDS011;26344;45.532;9.232;2023-03-19T09:08:22;31.40;;;22.00;;
40653;SDS011;26344;45.532;9.232;2023-03-19T09:10:48;31.63;;;22.05;;
40653;SDS011;26344;45.532;9.232;2023-03-19T09:13:14;31.92;;;23.10;;
40653;SDS011;26344;45.532;9.232;2023-03-19T09:15:40;28.70;;;21.10;;
40653;SDS011;26344;45.532;9.232;2023-03-19T09:18:06;28.92;;;20.88;;
40653;SDS011;26344;45.532;9.232;2023-03-19T09:20:32;30.35;;;21.17;;
40653;SDS011;26344;45.532;9.232;2023-03-19T09:22:58;30.20;;;21.17;;
40653;SDS011;26344;45.532;9.232;2023-03-19T09:25:24;31.35;;;22.25;;
40653;SDS011;26344;45.532;9.232;2023-03-19T09:27:50;29.92;;;21.70;;
40653;SDS011;26344;45.532;9.232;2023-03-19T09:30:16;29.85;;;21.27;;
40653;SDS011;26344;45.532;9.232;2023-03-19T09:32:42;30.60;;;20.85;;
40653;SDS011;26344;45.532;9.232;2023-03-19T09:35:08;28.48;;;19.48;;
40653;SDS011;26344;45.532;9.232;2023-03-19T09:37:34;28.48;;;20.70;;
40653;SDS011;26344;45.532;9.232;2023-03-19T09:40:01;25.88;;;19.42;;
40653;SDS011;26344;45.532;9.232;2023-03-19T09:45:15;28.25;;;18.88;;
40653;SDS011;26344;45.532;9.232;2023-03-19T09:47:42;29.33;;;19.55;;
40653;SDS011;26344;45.532;9.232;2023-03-19T09:50:12;28.87;;;19.27;;
40653;SDS011;26344;45.532;9.232;2023-03-19T09:52:50;28.45;;;19.90;;
40653;SDS011;26344;45.532;9.232;2023-03-19T09:57:50;27.60;;;18.50;;
40653;SDS011;26344;45.532;9.232;2023-03-19T10:02:46;26.10;;;18.77;;
40653;SDS011;26344;45.532;9.232;2023-03-19T10:05:34;27.83;;;19.52;;
40653;SDS011;26344;45.532;9.232;2023-03-19T10:13:28;24.67;;;18.08;;
40653;SDS011;26344;45.532;9.232;2023-03-19T10:18:46;24.35;;;17.83;;
40653;SDS011;26344;45.532;9.232;2023-03-19T10:23:44;25.15;;;16.95;;
40653;SDS011;26344;45.532;9.232;2023-03-19T10:26:20;23.33;;;16.85;;
40653;SDS011;26344;45.532;9.232;2023-03-19T10:29:06;25.00;;;18.05;;
40653;SDS011;26344;45.532;9.232;2023-03-19T10:31:41;22.33;;;16.48;;
40653;SDS011;26344;45.532;9.232;2023-03-19T10:36:47;22.63;;;15.95;;
40653;SDS011;26344;45.532;9.232;2023-03-19T10:39:16;24.33;;;16.23;;
40653;SDS011;26344;45.532;9.232;2023-03-19T10:41:59;23.10;;;16.63;;
40653;SDS011;26344;45.532;9.232;2023-03-19T10:44:43;23.65;;;16.30;;
40653;SDS011;26344;45.532;9.232;2023-03-19T10:47:16;21.75;;;15.88;;
40653;SDS011;26344;45.532;9.232;2023-03-19T10:49:46;20.52;;;14.95;;
40653;SDS011;26344;45.532;9.232;2023-03-19T10:52:19;21.70;;;15.60;;
40653;SDS011;26344;45.532;9.232;2023-03-19T10:54:45;19.00;;;14.43;;
40653;SDS011;26344;45.532;9.232;2023-03-19T10:57:22;20.60;;;14.40;;
40653;SDS011;26344;45.532;9.232;2023-03-19T10:59:50;20.27;;;14.33;;
40653;SDS011;26344;45.532;9.232;2023-03-19T11:02:20;19.63;;;14.35;;
40653;SDS011;26344;45.532;9.232;2023-03-19T11:07:38;20.55;;;14.90;;
40653;SDS011;26344;45.532;9.232;2023-03-19T11:10:11;20.63;;;13.93;;
40653;SDS011;26344;45.532;9.232;2023-03-19T11:12:45;19.92;;;13.90;;
40653;SDS011;26344;45.532;9.232;2023-03-19T11:15:19;22.55;;;14.60;;
40653;SDS011;26344;45.532;9.232;2023-03-19T11:17:47;26.70;;;14.90;;
40653;SDS011;26344;45.532;9.232;2023-03-19T11:22:48;24.90;;;12.55;;
40653;SDS011;26344;45.532;9.232;2023-03-19T11:30:32;17.25;;;11.93;;
40653;SDS011;26344;45.532;9.232;2023-03-19T11:33:10;19.63;;;11.38;;
40653;SDS011;26344;45.532;9.232;2023-03-19T11:36:03;14.80;;;11.50;;
40653;SDS011;26344;45.532;9.232;2023-03-19T11:41:18;17.25;;;11.13;;
40653;SDS011;26344;45.532;9.232;2023-03-19T11:44:04;14.82;;;10.27;;
40653;SDS011;26344;45.532;9.232;2023-03-19T11:46:42;15.30;;;10.57;;
40653;SDS011;26344;45.532;9.232;2023-03-19T11:51:58;16.48;;;10.65;;
40653;SDS011;26344;45.532;9.232;2023-03-19T11:57:22;16.38;;;10.07;;
40653;SDS011;26344;45.532;9.232;2023-03-19T12:05:55;19.60;;;11.18;;
40653;SDS011;26344;45.532;9.232;2023-03-19T12:16:59;17.58;;;11.43;;
40653;SDS011;26344;45.532;9.232;2023-03-19T12:19:34;15.55;;;10.55;;
40653;SDS011;26344;45.532;9.232;2023-03-19T12:25:55;18.02;;;12.15;;
40653;SDS011;26344;45.532;9.232;2023-03-19T12:36:35;18.75;;;12.88;;
40653;SDS011;26344;45.532;9.232;2023-03-19T12:39:14;18.40;;;13.23;;
40653;SDS011;26344;45.532;9.232;2023-03-19T12:41:43;19.60;;;14.27;;
40653;SDS011;26344;45.532;9.232;2023-03-19T12:44:13;18.42;;;12.70;;
40653;SDS011;26344;45.532;9.232;2023-03-19T12:46:54;20.92;;;13.20;;
40653;SDS011;26344;45.532;9.232;2023-03-19T12:55:26;19.90;;;14.63;;
40653;SDS011;26344;45.532;9.232;2023-03-19T13:00:55;19.98;;;14.35;;
40653;SDS011;26344;45.532;9.232;2023-03-19T13:06:36;21.45;;;14.63;;
40653;SDS011;26344;45.532;9.232;2023-03-19T13:09:37;17.40;;;13.60;;
40653;SDS011;26344;45.532;9.232;2023-03-19T13:12:14;20.23;;;14.05;;
40653;SDS011;26344;45.532;9.232;2023-03-19T13:14:51;24.20;;;13.82;;
40653;SDS011;26344;45.532;9.232;2023-03-19T13:20:28;21.40;;;14.00;;
40653;SDS011;26344;45.532;9.232;2023-03-19T13:23:06;18.92;;;12.82;;
40653;SDS011;26344;45.532;9.232;2023-03-19T13:25:38;21.38;;;13.55;;
40653;SDS011;26344;45.532;9.232;2023-03-19T13:28:10;19.90;;;13.52;;
40653;SDS011;26344;45.532;9.232;2023-03-19T13:30:56;26.08;;;14.27;;
40653;SDS011;26344;45.532;9.232;2023-03-19T13:33:35;17.83;;;12.77;;
40653;SDS011;26344;45.532;9.232;2023-03-19T13:36:03;18.98;;;12.88;;
40653;SDS011;26344;45.532;9.232;2023-03-19T13:38:33;19.42;;;12.90;;
40653;SDS011;26344;45.532;9.232;2023-03-19T13:43:59;18.88;;;12.35;;
40653;SDS011;26344;45.532;9.232;2023-03-19T13:46:44;19.30;;;12.45;;
40653;SDS011;26344;45.532;9.232;2023-03-19T13:54:44;26.67;;;12.30;;
40653;SDS011;26344;45.532;9.232;2023-03-19T13:59:42;16.33;;;11.00;;
40653;SDS011;26344;45.532;9.232;2023-03-19T14:04:50;14.48;;;10.25;;
40653;SDS011;26344;45.532;9.232;2023-03-19T14:07:26;17.48;;;10.73;;
40653;SDS011;26344;45.532;9.232;2023-03-19T14:12:22;16.33;;;9.75;;
40653;SDS011;26344;45.532;9.232;2023-03-19T14:14:50;19.17;;;10.50;;
40653;SDS011;26344;45.532;9.232;2023-03-19T14:20:02;15.63;;;9.35;;
40653;SDS011;26344;45.532;9.232;2023-03-19T14:22:36;15.02;;;10.30;;
40653;SDS011;26344;45.532;9.232;2023-03-19T14:27:30;15.07;;;9.43;;
40653;SDS011;26344;45.532;9.232;2023-03-19T14:29:57;15.15;;;9.68;;
40653;SDS011;26344;45.532;9.232;2023-03-19T14:32:29;13.48;;;9.32;;
40653;SDS011;26344;45.532;9.232;2023-03-19T14:34:57;21.65;;;10.13;;
40653;SDS011;26344;45.532;9.232;2023-03-19T14:37:25;15.07;;;8.90;;
40653;SDS011;26344;45.532;9.232;2023-03-19T14:40:02;15.73;;;9.52;;
40653;SDS011;26344;45.532;9.232;2023-03-19T14:55:50;12.55;;;8.45;;
40653;SDS011;26344;45.532;9.232;2023-03-19T14:58:17;12.52;;;9.35;;
40653;SDS011;26344;45.532;9.232;2023-03-19T15:00:48;13.40;;;8.75;;
40653;SDS011;26344;45.532;9.232;2023-03-19T15:03:22;12.75;;;8.35;;
40653;SDS011;26344;45.532;9.232;2023-03-19T15:05:49;18.40;;;9.50;;
40653;SDS011;26344;45.532;9.232;2023-03-19T15:08:21;12.98;;;8.80;;
40653;SDS011;26344;45.532;9.232;2023-03-19T15:10:51;13.70;;;7.85;;
40653;SDS011;26344;45.532;9.232;2023-03-19T15:16:24;12.23;;;7.90;;
40653;SDS011;26344;45.532;9.232;2023-03-19T15:18:39;16.02;;;8.10;;
40653;SDS011;26344;45.532;9.232;2023-03-19T15:21:05;11.40;;;7.70;;
40653;SDS011;26344;45.532;9.232;2023-03-19T15:23:31;10.90;;;7.80;;
40653;SDS011;26344;45.532;9.232;2023-03-19T15:26:01;13.75;;;7.93;;
40653;SDS011;26344;45.532;9.232;2023-03-19T15:28:29;13.18;;;7.95;;
40653;SDS011;26344;45.532;9.232;2023-03-19T15:30:57;12.80;;;7.97;;
40653;SDS011;26344;45.532;9.232;2023-03-19T15:33:30;15.32;;;7.97;;
40653;SDS011;26344;45.532;9.232;2023-03-19T15:35:57;12.30;;;7.60;;
40653;SDS011;26344;45.532;9.232;2023-03-19T15:38:25;15.95;;;8.63;;
40653;SDS011;26344;45.532;9.232;2023-03-19T15:40:54;14.13;;;7.90;;
40653;SDS011;26344;45.532;9.232;2023-03-19T15:43:21;13.25;;;8.20;;
40653;SDS011;26344;45.532;9.232;2023-03-19T15:45:50;12.80;;;8.35;;
40653;SDS011;26344;45.532;9.232;2023-03-19T15:48:21;12.40;;;8.52;;
40653;SDS011;26344;45.532;9.232;2023-03-19T15:50:49;16.98;;;8.75;;
40653;SDS011;26344;45.532;9.232;2023-03-19T15:53:19;12.50;;;8.27;;
40653;SDS011;26344;45.532;9.232;2023-03-19T15:55:47;12.52;;;8.85;;
40653;SDS011;26344;45.532;9.232;2023-03-19T15:58:24;16.52;;;8.73;;
40653;SDS011;26344;45.532;9.232;2023-03-19T16:00:51;13.43;;;8.57;;
40653;SDS011;26344;45.532;9.232;2023-03-19T16:03:19;13.48;;;8.15;;
40653;SDS011;26344;45.532;9.232;2023-03-19T16:05:49;12.43;;;8.77;;
40653;SDS011;26344;45.532;9.232;2023-03-19T16:08:25;15.40;;;8.25;;
40653;SDS011;26344;45.532;9.232;2023-03-19T16:10:51;14.52;;;8.80;;
40653;SDS011;26344;45.532;9.232;2023-03-19T16:13:28;13.00;;;8.13;;
40653;SDS011;26344;45.532;9.232;2023-03-19T16:15:55;15.32;;;7.80;;
40653;SDS011;26344;45.532;9.232;2023-03-19T16:18:25;14.18;;;7.88;;
40653;SDS011;26344;45.532;9.232;2023-03-19T16:21:05;16.40;;;7.82;;
40653;SDS011;26344;45.532;9.232;2023-03-19T16:23:33;11.00;;;7.45;;
40653;SDS011;26344;45.532;9.232;2023-03-19T16:26:13;14.25;;;6.90;;
40653;SDS011;26344;45.532;9.232;2023-03-19T16:28:41;13.32;;;7.35;;
40653;SDS011;26344;45.532;9.232;2023-03-19T16:31:21;13.50;;;6.85;;
40653;SDS011;26344;45.532;9.232;2023-03-19T16:33:48;11.27;;;6.63;;